createdAt,value
2023-05-14T00:01:04.631Z,11.16
2023-05-14T00:03:32.968Z,11.14
2023-05-14T00:06:01.154Z,11.11
2023-05-14T00:08:29.333Z,11.08
2023-05-14T00:10:57.191Z,11.07
2023-05-14T00:13:25.477Z,11.06
2023-05-14T00:15:53.672Z,11.04
2023-05-14T00:18:21.965Z,11.03
2023-05-14T00:20:55.082Z,11.02
2023-05-14T00:23:23.192Z,11.06
2023-05-14T00:25:51.048Z,11.08
2023-05-14T00:28:19.027Z,11.05
2023-05-14T00:30:47.302Z,11.02
2023-05-14T00:33:15.575Z,11.04
2023-05-14T00:35:43.747Z,11.08
2023-05-14T00:38:17.140Z,11.09
2023-05-14T00:40:50.244Z,11.11
2023-05-14T00:43:18.614Z,11.10
2023-05-14T00:45:46.689Z,11.09
2023-05-14T00:48:14.864Z,11.08
2023-05-14T00:50:42.937Z,11.01
2023-05-14T00:53:11.512Z,10.94
2023-05-14T00:55:39.481Z,10.87
2023-05-14T00:58:07.451Z,10.84
2023-05-14T01:00:35.343Z,10.86
2023-05-14T01:03:03.653Z,10.89
2023-05-14T01:05:31.884Z,10.91
2023-05-14T01:07:59.834Z,10.94
2023-05-14T01:10:27.815Z,10.97
2023-05-14T01:12:55.992Z,10.99
2023-05-14T01:15:24.162Z,11.00
2023-05-14T01:17:52.355Z,10.97
2023-05-14T01:20:20.310Z,10.99
2023-05-14T01:22:48.370Z,11.02
2023-05-14T01:25:16.541Z,11.05
2023-05-14T01:27:44.620Z,11.03
2023-05-14T01:30:12.813Z,11.00
2023-05-14T01:32:41.077Z,11.07
2023-05-14T01:35:09.138Z,11.13
2023-05-14T01:37:37.210Z,11.15
2023-05-14T01:40:05.278Z,11.19
2023-05-14T01:42:33.452Z,11.20
2023-05-14T01:45:01.728Z,11.15
2023-05-14T01:47:29.766Z,11.06
2023-05-14T01:49:57.782Z,10.96
2023-05-14T01:52:25.740Z,10.87
2023-05-14T01:54:53.916Z,10.85
2023-05-14T01:57:21.981Z,10.82
2023-05-14T01:59:50.052Z,10.77
2023-05-14T02:02:18.026Z,10.74
2023-05-14T02:04:46.719Z,10.70
2023-05-14T02:07:14.672Z,10.71
2023-05-14T02:09:42.745Z,10.73
2023-05-14T02:12:11.952Z,10.75
2023-05-14T02:14:39.917Z,10.79
2023-05-14T02:17:08.086Z,10.81
2023-05-14T02:19:36.177Z,10.82
2023-05-14T02:22:04.233Z,10.82
2023-05-14T02:24:32.513Z,10.82
2023-05-14T02:27:01.540Z,10.82
2023-05-14T02:29:29.632Z,10.82
2023-05-14T02:31:57.733Z,10.90
2023-05-14T02:34:26.433Z,10.91
2023-05-14T02:36:54.502Z,10.84
2023-05-14T02:39:22.582Z,10.77
2023-05-14T02:41:50.955Z,10.67
2023-05-14T02:44:19.048Z,10.57
2023-05-14T02:46:47.353Z,10.49
2023-05-14T02:49:15.482Z,10.50
2023-05-14T02:51:43.361Z,10.51
2023-05-14T02:54:11.419Z,10.52
2023-05-14T02:56:39.800Z,10.54
2023-05-14T02:59:07.770Z,10.53
2023-05-14T03:01:36.047Z,10.48
2023-05-14T03:04:04.548Z,10.40
2023-05-14T03:06:32.700Z,10.32
2023-05-14T03:09:00.871Z,10.25
2023-05-14T03:11:28.949Z,10.25
2023-05-14T03:13:57.013Z,10.33
2023-05-14T03:16:25.151Z,10.36
2023-05-14T03:18:53.190Z,10.32
2023-05-14T03:21:21.127Z,10.31
2023-05-14T03:23:49.310Z,10.36
2023-05-14T03:26:17.482Z,10.39
2023-05-14T03:28:45.446Z,10.36
2023-05-14T03:31:13.538Z,10.37
2023-05-14T03:33:41.585Z,10.39
2023-05-14T03:36:09.661Z,10.43
2023-05-14T03:38:37.836Z,10.49
2023-05-14T03:41:06.111Z,10.51
2023-05-14T03:43:34.082Z,10.55
2023-05-14T03:46:02.458Z,10.58
2023-05-14T03:48:30.937Z,10.61
2023-05-14T03:50:59.115Z,10.61
2023-05-14T03:53:27.315Z,10.64
2023-05-14T03:55:55.257Z,10.74
2023-05-14T03:58:23.321Z,10.80
2023-05-14T04:00:51.201Z,10.83
2023-05-14T04:03:19.562Z,10.88
2023-05-14T04:05:47.546Z,10.88
2023-05-14T04:08:15.504Z,10.91
2023-05-14T04:10:43.680Z,10.92
2023-05-14T04:13:11.673Z,10.92
2023-05-14T04:15:40.474Z,10.89
2023-05-14T04:18:08.427Z,10.93
2023-05-14T04:20:37.192Z,10.98
2023-05-14T04:23:05.368Z,10.97
2023-05-14T04:25:33.484Z,10.95
2023-05-14T04:28:01.414Z,10.98
2023-05-14T04:30:29.995Z,11.03
2023-05-14T04:32:58.087Z,11.08
2023-05-14T04:35:26.236Z,11.11
2023-05-14T04:37:54.417Z,11.12
2023-05-14T04:40:23.267Z,11.21
2023-05-14T04:42:51.466Z,11.31
2023-05-14T04:45:20.260Z,11.35
2023-05-14T04:47:48.504Z,11.41
2023-05-14T04:50:16.912Z,11.50
2023-05-14T04:52:44.885Z,11.57
2023-05-14T04:55:13.061Z,11.62
2023-05-14T04:57:41.239Z,11.66
2023-05-14T05:00:10.343Z,11.68
2023-05-14T05:02:38.462Z,11.67
2023-05-14T05:05:06.584Z,11.68
2023-05-14T05:07:34.646Z,11.73
2023-05-14T05:10:02.926Z,11.79
2023-05-14T05:12:31.098Z,11.82
2023-05-14T05:14:59.174Z,11.84
2023-05-14T05:17:27.260Z,11.87
2023-05-14T05:19:55.621Z,11.90
2023-05-14T05:22:23.592Z,11.91
2023-05-14T05:24:51.759Z,11.91
2023-05-14T05:27:22.296Z,11.92
2023-05-14T05:29:50.261Z,11.96
2023-05-14T05:32:17.925Z,12.01
2023-05-14T05:34:45.756Z,12.05
2023-05-14T05:37:15.011Z,12.07
2023-05-14T05:39:42.750Z,12.10
2023-05-14T05:42:10.720Z,12.14
2023-05-14T05:44:38.389Z,12.19
2023-05-14T05:47:06.285Z,12.25
2023-05-14T05:49:34.131Z,12.38
2023-05-14T05:52:01.975Z,12.45
2023-05-14T05:54:29.644Z,12.50
2023-05-14T05:56:57.510Z,12.57
2023-05-14T05:59:25.173Z,12.64
2023-05-14T06:01:52.901Z,12.69
2023-05-14T06:04:20.802Z,12.75
2023-05-14T06:06:49.598Z,12.78
2023-05-14T06:09:17.679Z,12.83
2023-05-14T06:11:45.427Z,12.86
2023-05-14T06:14:13.095Z,12.88
2023-05-14T06:16:40.766Z,12.91
2023-05-14T06:19:08.893Z,12.94
2023-05-14T06:21:36.705Z,12.98
2023-05-14T06:24:04.465Z,13.01
2023-05-14T06:26:32.322Z,13.05
2023-05-14T06:28:59.979Z,13.09
2023-05-14T06:31:27.679Z,13.15
2023-05-14T06:33:55.407Z,13.20
2023-05-14T06:36:23.089Z,13.25
2023-05-14T06:38:50.832Z,13.30
2023-05-14T06:41:18.601Z,13.36
2023-05-14T06:43:46.257Z,13.41
2023-05-14T06:46:13.915Z,13.47
2023-05-14T06:48:41.611Z,13.52
2023-05-14T06:51:09.450Z,13.58
2023-05-14T06:53:37.318Z,13.65
2023-05-14T06:56:04.974Z,13.73
2023-05-14T06:58:32.755Z,13.80
2023-05-14T07:01:00.572Z,13.87
2023-05-14T07:03:29.295Z,13.92
2023-05-14T07:05:56.965Z,13.97
2023-05-14T07:08:24.741Z,14.04
2023-05-14T07:10:52.491Z,14.12
2023-05-14T07:13:20.152Z,14.22
2023-05-14T07:15:47.806Z,14.31
2023-05-14T07:18:15.503Z,14.39
2023-05-14T07:20:43.233Z,14.49
2023-05-14T07:23:11.002Z,14.56
2023-05-14T07:25:38.660Z,14.62
2023-05-14T07:28:06.422Z,14.68
2023-05-14T07:30:34.082Z,14.74
2023-05-14T07:33:01.770Z,14.81
2023-05-14T07:35:29.616Z,14.86
2023-05-14T07:37:57.274Z,14.93
2023-05-14T07:40:27.759Z,15.00
2023-05-14T07:42:55.470Z,15.07
2023-05-14T07:45:23.128Z,15.14
2023-05-14T07:47:52.358Z,15.23
2023-05-14T07:50:20.413Z,15.32
2023-05-14T07:52:48.062Z,15.38
2023-05-14T07:55:15.736Z,15.46
2023-05-14T07:57:43.499Z,15.52
2023-05-14T08:00:11.554Z,15.60
2023-05-14T08:02:39.402Z,15.66
2023-05-14T08:05:07.399Z,15.68
2023-05-14T08:07:35.175Z,15.73
2023-05-14T08:10:02.929Z,15.79
2023-05-14T08:12:30.701Z,15.85
2023-05-14T08:14:58.449Z,15.94
2023-05-14T08:17:26.361Z,16.01
2023-05-14T08:19:54.394Z,16.05
2023-05-14T08:22:22.057Z,16.11
2023-05-14T08:24:49.816Z,16.17
2023-05-14T08:27:17.496Z,16.22
2023-05-14T08:29:45.145Z,16.26
2023-05-14T08:32:22.917Z,16.30
2023-05-14T08:34:51.993Z,16.36
2023-05-14T08:37:19.900Z,16.41
2023-05-14T08:39:47.570Z,16.50
2023-05-14T08:42:15.229Z,16.57
2023-05-14T08:44:42.891Z,16.60
2023-05-14T08:47:10.550Z,16.67
2023-05-14T08:49:38.314Z,16.76
2023-05-14T08:52:05.934Z,16.85
2023-05-14T08:54:33.649Z,16.94
2023-05-14T08:57:01.298Z,17.01
2023-05-14T08:59:28.960Z,17.08
2023-05-14T09:01:56.843Z,17.16
2023-05-14T09:04:24.592Z,17.23
2023-05-14T09:06:52.258Z,17.30
2023-05-14T09:09:22.780Z,17.36
2023-05-14T09:11:50.549Z,17.40
2023-05-14T09:14:18.313Z,17.47
2023-05-14T09:16:46.056Z,17.56
2023-05-14T09:19:14.025Z,17.62
2023-05-14T09:21:41.910Z,17.71
2023-05-14T09:24:09.678Z,17.79
2023-05-14T09:26:37.439Z,17.88
2023-05-14T09:29:05.305Z,17.95
2023-05-14T09:31:33.007Z,18.05
2023-05-14T09:34:00.832Z,18.08
2023-05-14T09:36:28.704Z,18.14
2023-05-14T09:38:56.368Z,18.18
2023-05-14T09:41:24.654Z,18.21
2023-05-14T09:43:52.398Z,18.26
2023-05-14T09:46:20.086Z,18.27
2023-05-14T09:48:47.946Z,18.33
2023-05-14T09:51:16.104Z,18.41
2023-05-14T09:53:43.869Z,18.54
2023-05-14T09:56:11.645Z,18.61
2023-05-14T09:58:39.293Z,18.65
2023-05-14T10:01:07.534Z,18.61
2023-05-14T10:03:35.336Z,18.62
2023-05-14T10:06:02.997Z,18.82
2023-05-14T10:08:30.661Z,19.02
2023-05-14T10:10:58.320Z,19.19
2023-05-14T10:13:25.981Z,19.34
2023-05-14T10:15:53.747Z,19.31
2023-05-14T10:18:21.519Z,19.34
2023-05-14T10:20:49.278Z,19.49
2023-05-14T10:23:17.038Z,19.65
2023-05-14T10:25:44.700Z,19.66
2023-05-14T10:28:12.476Z,19.60
2023-05-14T10:30:40.229Z,19.58
2023-05-14T10:33:08.382Z,19.49
2023-05-14T10:35:36.373Z,19.40
2023-05-14T10:38:04.006Z,19.32
2023-05-14T10:40:31.696Z,19.25
2023-05-14T10:42:59.358Z,19.16
2023-05-14T10:45:27.121Z,19.09
2023-05-14T10:47:55.139Z,19.02
2023-05-14T10:50:23.848Z,18.98
2023-05-14T10:52:51.950Z,18.95
2023-05-14T10:55:19.624Z,18.94
2023-05-14T10:57:50.314Z,18.91
2023-05-14T11:00:18.435Z,18.93
2023-05-14T11:02:47.215Z,19.00
2023-05-14T11:05:16.035Z,19.20
2023-05-14T11:07:43.970Z,19.27
2023-05-14T11:10:11.761Z,19.27
2023-05-14T11:12:39.803Z,19.32
2023-05-14T11:15:07.677Z,19.41
2023-05-14T11:17:35.357Z,19.53
2023-05-14T11:20:03.268Z,19.59
2023-05-14T11:22:31.369Z,19.67
2023-05-14T11:24:59.354Z,19.68
2023-05-14T11:27:27.465Z,19.75
2023-05-14T11:29:56.302Z,19.84
2023-05-14T11:32:24.436Z,19.86
2023-05-14T11:34:52.788Z,19.93
2023-05-14T11:37:20.641Z,20.12
2023-05-14T11:39:49.120Z,20.34
2023-05-14T11:42:19.038Z,20.53
2023-05-14T11:44:47.413Z,20.68
2023-05-14T11:47:15.490Z,20.84
2023-05-14T11:49:43.555Z,20.94
2023-05-14T11:52:12.640Z,20.92
2023-05-14T11:54:40.834Z,21.00
2023-05-14T11:57:08.897Z,21.06
2023-05-14T11:59:36.977Z,20.97
2023-05-14T12:02:05.663Z,20.93
2023-05-14T12:04:34.200Z,20.95
2023-05-14T12:07:02.492Z,20.89
2023-05-14T12:09:30.359Z,20.79
2023-05-14T12:11:58.341Z,20.74
2023-05-14T12:14:26.501Z,20.70
2023-05-14T12:16:54.365Z,20.73
2023-05-14T12:19:24.319Z,20.85
2023-05-14T12:21:55.473Z,20.97
2023-05-14T12:24:26.644Z,21.05
2023-05-14T12:26:57.290Z,21.12
2023-05-14T12:29:28.273Z,21.15
2023-05-14T12:31:56.171Z,21.11
2023-05-14T12:34:25.857Z,21.14
2023-05-14T12:36:54.433Z,21.26
2023-05-14T12:39:22.607Z,21.35
2023-05-14T12:41:50.353Z,21.45
2023-05-14T12:44:18.413Z,21.53
2023-05-14T12:46:46.228Z,21.56
2023-05-14T12:49:14.045Z,21.62
2023-05-14T12:51:41.804Z,21.68
2023-05-14T12:54:11.334Z,21.71
2023-05-14T12:56:39.797Z,21.74
2023-05-14T12:59:07.972Z,21.82
2023-05-14T13:01:37.548Z,21.87
2023-05-14T13:04:06.405Z,21.87
2023-05-14T13:06:34.436Z,21.85
2023-05-14T13:09:02.824Z,21.84
2023-05-14T13:11:32.519Z,21.85
2023-05-14T13:14:03.673Z,21.82
2023-05-14T13:16:39.316Z,21.85
2023-05-14T13:19:14.326Z,21.89
2023-05-14T13:21:45.681Z,21.91
2023-05-14T13:24:15.517Z,21.89
2023-05-14T13:26:44.806Z,21.88
2023-05-14T13:29:13.086Z,21.90
2023-05-14T13:31:41.481Z,21.89
2023-05-14T13:34:10.458Z,21.89
2023-05-14T13:36:39.870Z,21.92
2023-05-14T13:39:07.647Z,21.99
2023-05-14T13:41:35.901Z,22.07
2023-05-14T13:44:03.663Z,22.11
2023-05-14T13:46:31.392Z,22.10
2023-05-14T13:48:59.297Z,22.10
2023-05-14T13:51:26.970Z,22.11
2023-05-14T13:56:27.204Z,22.14
2023-05-14T13:58:54.962Z,22.13
2023-05-14T14:01:23.507Z,22.09
2023-05-14T14:03:51.206Z,22.05
2023-05-14T14:06:19.177Z,22.01
2023-05-14T14:08:47.152Z,21.98
2023-05-14T14:11:15.015Z,21.93
2023-05-14T14:13:45.203Z,21.87
2023-05-14T14:16:15.149Z,21.83
2023-05-14T14:18:43.755Z,21.79
2023-05-14T14:21:12.435Z,21.77
2023-05-14T14:23:40.358Z,21.75
2023-05-14T14:26:08.664Z,21.69
2023-05-14T14:28:36.841Z,21.63
2023-05-14T14:31:05.557Z,21.60
2023-05-14T14:33:34.187Z,21.58
2023-05-14T14:36:02.381Z,21.55
2023-05-14T14:38:33.232Z,21.54
2023-05-14T14:41:03.552Z,21.50
2023-05-14T14:43:32.029Z,21.46
2023-05-14T14:46:00.440Z,21.43
2023-05-14T14:48:29.092Z,21.39
2023-05-14T14:50:57.273Z,21.34
2023-05-14T14:53:25.553Z,21.29
2023-05-14T14:55:53.919Z,21.25
2023-05-14T14:58:22.197Z,21.19
2023-05-14T15:00:50.259Z,21.15
2023-05-14T15:03:19.534Z,21.09
2023-05-14T15:05:47.541Z,21.03
2023-05-14T15:08:15.722Z,20.99
2023-05-14T15:10:43.785Z,20.93
2023-05-14T15:13:12.063Z,20.85
2023-05-14T15:15:39.728Z,20.81
2023-05-14T15:18:07.544Z,20.78
2023-05-14T15:20:35.352Z,20.74
2023-05-14T15:23:03.462Z,20.70
2023-05-14T15:25:31.203Z,20.67
2023-05-14T15:27:58.955Z,20.65
2023-05-14T15:30:26.613Z,20.61
2023-05-14T15:32:54.434Z,20.58
2023-05-14T15:35:23.618Z,20.55
2023-05-14T15:37:51.863Z,20.54
2023-05-14T15:40:20.255Z,20.54
2023-05-14T15:42:48.403Z,20.51
2023-05-14T15:45:16.704Z,20.48
2023-05-14T15:47:45.897Z,20.45
2023-05-14T15:50:14.281Z,20.42
2023-05-14T15:52:42.532Z,20.39
2023-05-14T15:55:11.025Z,20.37
2023-05-14T15:57:39.397Z,20.33
2023-05-14T16:00:11.552Z,20.30
2023-05-14T16:02:40.374Z,20.27
2023-05-14T16:05:08.941Z,20.24
2023-05-14T16:07:37.909Z,20.21
2023-05-14T16:10:06.111Z,20.19
2023-05-14T16:12:33.973Z,20.16
2023-05-14T16:15:01.730Z,20.13
2023-05-14T16:17:30.659Z,20.11
2023-05-14T16:19:58.383Z,20.09
2023-05-14T16:22:26.256Z,20.05
2023-05-14T16:24:53.911Z,20.01
2023-05-14T16:27:22.191Z,19.98
2023-05-14T16:29:49.851Z,19.94
2023-05-14T16:32:17.785Z,19.90
2023-05-14T16:34:49.851Z,19.86
2023-05-14T16:37:17.856Z,19.83
2023-05-14T16:39:45.931Z,19.79
2023-05-14T16:42:13.593Z,19.75
2023-05-14T16:44:41.345Z,19.73
2023-05-14T16:47:09.006Z,19.70
2023-05-14T16:49:36.873Z,19.67
2023-05-14T16:52:04.543Z,19.64
2023-05-14T16:54:32.278Z,19.61
2023-05-14T16:57:00.671Z,19.58
2023-05-14T16:59:28.643Z,19.55
2023-05-14T17:01:56.522Z,19.52
2023-05-14T17:04:26.806Z,19.48
2023-05-14T17:06:55.109Z,19.45
2023-05-14T17:09:23.076Z,19.41
2023-05-14T17:11:51.049Z,19.38
2023-05-14T17:14:18.705Z,19.36
2023-05-14T17:16:46.370Z,19.33
2023-05-14T17:19:14.060Z,19.30
2023-05-14T17:21:41.797Z,19.27
2023-05-14T17:24:09.558Z,19.24
2023-05-14T17:26:38.051Z,19.22
2023-05-14T17:29:09.196Z,19.18
2023-05-14T17:31:36.975Z,19.15
2023-05-14T17:34:04.911Z,19.12
2023-05-14T17:36:32.986Z,19.09
2023-05-14T17:39:00.958Z,19.07
2023-05-14T17:41:29.336Z,19.04
2023-05-14T17:43:57.609Z,19.01
2023-05-14T17:46:25.513Z,18.99
2023-05-14T17:48:54.067Z,18.97
2023-05-14T17:51:22.962Z,18.95
2023-05-14T17:53:51.543Z,18.92
2023-05-14T17:56:20.237Z,18.89
2023-05-14T17:58:48.310Z,18.86
2023-05-14T18:01:16.533Z,18.85
2023-05-14T18:03:44.916Z,18.83
2023-05-14T18:06:13.359Z,18.80
2023-05-14T18:08:42.130Z,18.77
2023-05-14T18:11:10.421Z,18.74
2023-05-14T18:13:38.487Z,18.72
2023-05-14T18:16:06.664Z,18.70
2023-05-14T18:18:34.920Z,18.69
2023-05-14T18:21:03.827Z,18.67
2023-05-14T18:23:32.205Z,18.65
2023-05-14T18:26:00.790Z,18.63
2023-05-14T18:28:29.278Z,18.61
2023-05-14T18:30:57.653Z,18.59
2023-05-14T18:33:26.547Z,18.56
2023-05-14T18:35:54.612Z,18.53
2023-05-14T18:38:22.893Z,18.51
2023-05-14T18:40:50.754Z,18.49
2023-05-14T18:43:19.843Z,18.46
2023-05-14T18:45:48.399Z,18.42
2023-05-14T18:48:16.726Z,18.40
2023-05-14T18:50:44.385Z,18.38
2023-05-14T18:53:12.150Z,18.36
2023-05-14T18:55:39.907Z,18.34
2023-05-14T18:58:07.562Z,18.32
2023-05-14T19:00:35.324Z,18.31
2023-05-14T19:03:03.063Z,18.29
2023-05-14T19:05:31.175Z,18.27
2023-05-14T19:07:58.821Z,18.27
2023-05-14T19:10:26.483Z,18.25
2023-05-14T19:12:54.246Z,18.23
2023-05-14T19:15:22.236Z,18.19
2023-05-14T19:17:50.139Z,18.14
2023-05-14T19:20:17.851Z,18.10
2023-05-14T19:22:45.610Z,18.08
2023-05-14T19:25:13.276Z,18.05
2023-05-14T19:27:40.930Z,18.01
2023-05-14T19:30:08.716Z,17.94
2023-05-14T19:32:38.057Z,17.89
2023-05-14T19:35:05.996Z,17.84
2023-05-14T19:37:33.732Z,17.82
2023-05-14T19:40:01.388Z,17.77
2023-05-14T19:42:29.277Z,17.73
2023-05-14T19:44:57.023Z,17.69
2023-05-14T19:47:24.847Z,17.64
2023-05-14T19:49:52.760Z,17.60
2023-05-14T19:52:20.426Z,17.55
2023-05-14T19:54:48.183Z,17.48
2023-05-14T19:57:16.048Z,17.43
2023-05-14T19:59:44.595Z,17.40
2023-05-14T20:02:18.728Z,17.37
2023-05-14T20:04:47.637Z,17.28
2023-05-14T20:07:15.863Z,17.21
2023-05-14T20:09:43.685Z,17.16
2023-05-14T20:12:13.089Z,17.11
2023-05-14T20:14:41.557Z,17.09
2023-05-14T20:17:09.420Z,17.04
2023-05-14T20:19:37.292Z,16.98
2023-05-14T20:22:05.063Z,16.94
2023-05-14T20:24:33.240Z,16.90
2023-05-14T20:27:00.994Z,16.87
2023-05-14T20:29:28.760Z,16.84
2023-05-14T20:31:57.239Z,16.78
2023-05-14T20:34:25.104Z,16.77
2023-05-14T20:36:52.976Z,16.77
2023-05-14T20:39:20.948Z,16.75
2023-05-14T20:41:48.718Z,16.73
2023-05-14T20:44:16.837Z,16.73
2023-05-14T20:46:46.235Z,16.70
2023-05-14T20:49:14.254Z,16.68
2023-05-14T20:51:42.321Z,16.64
2023-05-14T20:54:09.986Z,16.61
2023-05-14T20:56:37.855Z,16.56
2023-05-14T20:59:05.515Z,16.52
2023-05-14T21:01:33.394Z,16.47
2023-05-14T21:04:01.336Z,16.45
2023-05-14T21:06:29.322Z,16.42
2023-05-14T21:08:57.085Z,16.37
2023-05-14T21:11:24.974Z,16.34
2023-05-14T21:13:52.936Z,16.33
2023-05-14T21:16:20.866Z,16.33
2023-05-14T21:18:48.810Z,16.29
2023-05-14T21:21:16.621Z,16.26
2023-05-14T21:23:44.386Z,16.26
2023-05-14T21:26:12.179Z,16.24
2023-05-14T21:28:39.924Z,16.23
2023-05-14T21:31:07.676Z,16.20
2023-05-14T21:33:35.442Z,16.18
2023-05-14T21:36:03.455Z,16.14
2023-05-14T21:38:32.710Z,16.13
2023-05-14T21:41:00.476Z,16.13
2023-05-14T21:43:28.142Z,16.11
2023-05-14T21:45:55.799Z,16.09
2023-05-14T21:48:23.700Z,16.08
2023-05-14T21:50:51.430Z,16.06
2023-05-14T21:53:19.209Z,16.04
2023-05-14T21:55:46.970Z,16.02
2023-05-14T21:58:14.825Z,16.01
2023-05-14T22:00:42.497Z,15.99
2023-05-14T22:03:10.249Z,16.02
2023-05-14T22:05:38.015Z,16.02
2023-05-14T22:08:06.189Z,16.00
2023-05-14T22:10:33.954Z,16.00
2023-05-14T22:13:01.617Z,16.00
2023-05-14T22:15:29.285Z,15.97
2023-05-14T22:17:57.325Z,15.95
2023-05-14T22:20:25.217Z,15.91
2023-05-14T22:22:53.085Z,15.85
2023-05-14T22:25:20.844Z,15.85
2023-05-14T22:27:48.541Z,15.81
2023-05-14T22:30:16.270Z,15.75
2023-05-14T22:32:44.246Z,15.74
2023-05-14T22:35:12.021Z,15.72
2023-05-14T22:37:39.671Z,15.71
2023-05-14T22:40:07.539Z,15.68
2023-05-14T22:42:35.191Z,15.66
2023-05-14T22:45:03.172Z,15.64
2023-05-14T22:47:31.295Z,15.67
2023-05-14T22:49:59.102Z,15.67
2023-05-14T22:52:26.764Z,15.63
2023-05-14T22:54:54.734Z,15.60
2023-05-14T22:57:22.702Z,15.58
2023-05-14T22:59:50.368Z,15.59
2023-05-14T23:02:18.027Z,15.58
2023-05-14T23:04:45.798Z,15.56
2023-05-14T23:07:13.553Z,15.54
2023-05-14T23:09:41.523Z,15.58
2023-05-14T23:12:09.705Z,15.57
2023-05-14T23:14:37.359Z,15.53
2023-05-14T23:17:05.022Z,15.47
2023-05-14T23:19:32.709Z,15.42
2023-05-14T23:22:00.554Z,15.39
2023-05-14T23:24:28.209Z,15.33
2023-05-14T23:26:56.080Z,15.25
2023-05-14T23:29:23.747Z,15.18
2023-05-14T23:31:51.424Z,15.17
2023-05-14T23:34:19.275Z,15.13
2023-05-14T23:36:46.928Z,15.07
2023-05-14T23:39:14.600Z,15.06
2023-05-14T23:41:42.251Z,15.06
2023-05-14T23:44:10.025Z,15.00
2023-05-14T23:46:37.692Z,14.97
2023-05-14T23:49:05.344Z,14.93
2023-05-14T23:51:33.111Z,14.94
2023-05-14T23:54:00.969Z,14.94
2023-05-14T23:56:29.407Z,14.92
2023-05-14T23:58:57.222Z,14.92
